Time;durP1;ratioP1;P1;durP2;ratioP2;P2;SDS_P1;SDS_P2;PMS_P1;PMS_P2;Temp;Humidity;BMP_temperature;BMP_pressure;BME280_temperature;BME280_humidity;BME280_pressure;Samples;Min_cycle;Max_cycle;Signal;HPM_P1;HPM_P2
2022/06/16 00:00:33;;;;;;;;;;;12.30;99.90;;;;;;5025835;28;19996;-77
2022/06/16 00:02:59;;;;;;;;;;;12.30;99.90;;;;;;5010138;28;19932;-78
2022/06/16 00:05:26;;;;;;;;;;;12.40;99.90;;;;;;5019863;28;19921;-78
2022/06/16 00:07:53;;;;;;;;;;;12.30;99.90;;;;;;5030617;28;19917;-78
2022/06/16 00:10:19;;;;;;;;;;;12.30;99.90;;;;;;5000882;28;20374;-79
2022/06/16 00:12:45;;;;;;;;;;;12.30;99.90;;;;;;5020350;28;20294;-78
2022/06/16 00:15:12;;;;;;;;;;;12.60;99.90;;;;;;5011819;28;19917;-79
2022/06/16 00:17:37;;;;;;;;;;;12.30;99.90;;;;;;4985251;28;19918;-78
2022/06/16 00:20:04;;;;;;;;;;;12.30;99.90;;;;;;5021751;28;19971;-78
2022/06/16 00:22:31;;;;;;;;;;;12.30;99.90;;;;;;5019461;28;19960;-78
2022/06/16 00:24:56;;;;;;;;;;;12.30;99.90;;;;;;5049618;28;20438;-78
2022/06/16 00:27:22;;;;;;;;;;;12.40;99.90;;;;;;5040444;28;19993;-79
2022/06/16 00:29:50;;;;;;;;;;;12.40;99.90;;;;;;5026314;28;20263;-79
2022/06/16 00:32:16;;;;;;;;;;;12.50;99.90;;;;;;5020507;28;19932;-78
2022/06/16 00:34:42;;;;;;;;;;;12.50;99.90;;;;;;5048932;28;19916;-79
2022/06/16 00:37:07;;;;;;;;;;;12.50;99.90;;;;;;5041193;28;19917;-78
2022/06/16 00:39:33;;;;;;;;;;;12.60;99.90;;;;;;5011141;28;19917;-80
2022/06/16 00:42:10;;;;;;;;;;;12.60;99.90;;;;;;5025541;28;19967;-78
2022/06/16 00:44:41;;;;;;;;;;;12.60;99.90;;;;;;5021057;28;19917;-80
2022/06/16 00:47:07;;;;;;;;;;;12.70;99.90;;;;;;5019186;28;19917;-78
2022/06/16 00:49:33;;;;;;;;;;;12.70;99.90;;;;;;5049010;28;19921;-77
2022/06/16 00:52:02;;;;;;;;;;;12.70;99.90;;;;;;5023740;28;19987;-80
2022/06/16 00:54:27;;;;;;;;;;;12.70;99.90;;;;;;5048441;28;19928;-78
2022/06/16 00:56:54;;;;;;;;;;;12.60;99.90;;;;;;5007653;28;19917;-78
2022/06/16 00:59:20;;;;;;;;;;;12.60;99.90;;;;;;5021911;28;19963;-78
2022/06/16 01:01:46;;;;;;;;;;;12.60;99.90;;;;;;5051123;28;19924;-78
2022/06/16 01:07:01;;;;;;;;;;;12.50;99.90;;;;;;5025645;28;19948;-78
2022/06/16 01:09:31;;;;;;;;;;;12.40;99.90;;;;;;5027249;28;20027;-79
2022/06/16 01:15:00;;;;;;;;;;;12.40;99.90;;;;;;5018058;28;19917;-79
2022/06/16 01:17:44;;;;;;;;;;;12.30;99.90;;;;;;5024065;28;19925;-78
2022/06/16 01:20:28;;;;;;;;;;;12.20;99.90;;;;;;5029273;28;20013;-77
2022/06/16 01:23:12;;;;;;;;;;;12.10;99.90;;;;;;5014531;28;19923;-78
2022/06/16 01:26:07;;;;;;;;;;;12.10;99.90;;;;;;5017351;28;19917;-78
2022/06/16 01:28:57;;;;;;;;;;;12.00;99.90;;;;;;4973125;28;19923;-79
2022/06/16 01:31:26;;;;;;;;;;;11.90;99.90;;;;;;5033282;28;19928;-78
2022/06/16 01:34:05;;;;;;;;;;;12.00;99.90;;;;;;5057874;28;20394;-79
2022/06/16 01:36:48;;;;;;;;;;;12.00;99.90;;;;;;5029362;28;19917;-77
2022/06/16 01:39:36;;;;;;;;;;;12.10;99.90;;;;;;5033292;28;19917;-79
2022/06/16 01:42:14;;;;;;;;;;;12.10;99.90;;;;;;5019847;28;19917;-79
2022/06/16 01:44:40;;;;;;;;;;;12.10;99.90;;;;;;5016213;28;19917;-79
2022/06/16 01:47:09;;;;;;;;;;;12.10;99.90;;;;;;5001954;28;20264;-79
2022/06/16 01:49:38;;;;;;;;;;;12.00;99.90;;;;;;5016335;28;19918;-78
2022/06/16 01:52:11;;;;;;;;;;;12.00;99.90;;;;;;5024655;28;20377;-78
2022/06/16 01:54:39;;;;;;;;;;;12.00;99.90;;;;;;5017418;28;19921;-77
2022/06/16 01:57:08;;;;;;;;;;;12.10;99.90;;;;;;5041901;28;19917;-78
2022/06/16 01:59:36;;;;;;;;;;;12.00;99.90;;;;;;5045841;28;19967;-79
2022/06/16 02:02:09;;;;;;;;;;;12.00;99.90;;;;;;5037839;28;19928;-78
2022/06/16 02:04:39;;;;;;;;;;;12.00;99.90;;;;;;5018147;28;19917;-79
2022/06/16 02:07:08;;;;;;;;;;;12.00;99.90;;;;;;5044825;28;19925;-79
2022/06/16 02:09:38;;;;;;;;;;;12.00;99.90;;;;;;5035794;28;19916;-78
2022/06/16 02:12:05;;;;;;;;;;;12.10;99.90;;;;;;5026339;28;20251;-78
2022/06/16 02:14:42;;;;;;;;;;;12.10;99.90;;;;;;5019405;28;20362;-77
2022/06/16 02:17:08;;;;;;;;;;;12.10;99.90;;;;;;5025934;28;19963;-78
2022/06/16 02:19:37;;;;;;;;;;;12.10;99.90;;;;;;5049872;28;20000;-78
2022/06/16 02:22:03;;;;;;;;;;;12.10;99.90;;;;;;5036470;28;19960;-78
2022/06/16 02:24:30;;;;;;;;;;;12.10;99.90;;;;;;5037933;28;19993;-78
2022/06/16 02:26:57;;;;;;;;;;;12.10;99.90;;;;;;5016121;28;19963;-78
2022/06/16 02:29:33;;;;;;;;;;;12.10;99.90;;;;;;5029912;28;19927;-77
2022/06/16 02:32:05;;;;;;;;;;;12.10;99.90;;;;;;5042618;28;20348;-79
2022/06/16 02:34:37;;;;;;;;;;;12.10;99.90;;;;;;5034823;28;19991;-78
2022/06/16 02:37:20;;;;;;;;;;;12.10;99.90;;;;;;5035703;28;19927;-78
2022/06/16 02:39:56;;;;;;;;;;;12.00;99.90;;;;;;5019056;28;19996;-77
2022/06/16 02:42:25;;;;;;;;;;;11.90;99.90;;;;;;5058662;28;19967;-79
2022/06/16 02:45:03;;;;;;;;;;;11.80;99.90;;;;;;5034261;28;20329;-78
2022/06/16 02:47:47;;;;;;;;;;;11.70;99.90;;;;;;5034903;28;19925;-77
2022/06/16 02:50:21;;;;;;;;;;;11.60;99.90;;;;;;5015410;28;20367;-78
2022/06/16 02:52:51;;;;;;;;;;;11.50;99.90;;;;;;5034030;28;19928;-78
2022/06/16 02:55:24;;;;;;;;;;;11.40;99.90;;;;;;5006800;28;19922;-78
2022/06/16 02:57:55;;;;;;;;;;;11.40;99.90;;;;;;5013046;28;19975;-79
2022/06/16 03:00:29;;;;;;;;;;;11.40;99.90;;;;;;5011768;28;19925;-78
2022/06/16 03:03:15;;;;;;;;;;;11.40;99.90;;;;;;5028869;28;20384;-78
2022/06/16 03:05:40;;;;;;;;;;;11.40;99.90;;;;;;5019525;28;19917;-77
2022/06/16 03:08:06;;;;;;;;;;;11.30;99.90;;;;;;4989875;28;19925;-80
2022/06/16 03:13:16;;;;;;;;;;;11.30;99.90;;;;;;5030075;28;19943;-78
2022/06/16 03:15:42;;;;;;;;;;;11.30;99.90;;;;;;5052494;28;19918;-79
2022/06/16 03:18:07;;;;;;;;;;;11.30;99.90;;;;;;5010002;28;19917;-79
2022/06/16 03:20:34;;;;;;;;;;;11.30;99.90;;;;;;5011432;28;19933;-78
2022/06/16 03:23:00;;;;;;;;;;;11.40;99.90;;;;;;5027810;28;20378;-78
2022/06/16 03:25:25;;;;;;;;;;;11.30;99.90;;;;;;5038586;28;19917;-78
2022/06/16 03:27:52;;;;;;;;;;;11.40;99.90;;;;;;5044854;28;20064;-80
2022/06/16 03:30:20;;;;;;;;;;;11.40;99.90;;;;;;5013933;28;20359;-79
2022/06/16 03:32:47;;;;;;;;;;;11.40;99.90;;;;;;5025769;28;19921;-79
2022/06/16 03:35:14;;;;;;;;;;;11.50;99.90;;;;;;5024188;28;20287;-78
2022/06/16 03:37:41;;;;;;;;;;;11.50;99.90;;;;;;5023324;28;19921;-78
2022/06/16 03:40:08;;;;;;;;;;;11.60;99.90;;;;;;5042788;28;20433;-79
2022/06/16 03:42:34;;;;;;;;;;;11.60;99.90;;;;;;5011383;28;19924;-81
2022/06/16 03:44:59;;;;;;;;;;;11.70;99.90;;;;;;5030642;28;19917;-79
2022/06/16 03:47:26;;;;;;;;;;;11.80;99.90;;;;;;5030853;28;19975;-79
2022/06/16 03:49:53;;;;;;;;;;;11.80;99.90;;;;;;5015349;28;19917;-79
2022/06/16 03:52:24;;;;;;;;;;;12.00;99.90;;;;;;5011461;28;19948;-79
2022/06/16 03:54:51;;;;;;;;;;;12.00;99.90;;;;;;4992678;28;20360;-79
2022/06/16 03:57:17;;;;;;;;;;;12.10;99.90;;;;;;5025193;28;19922;-79
2022/06/16 03:59:43;;;;;;;;;;;12.10;99.90;;;;;;5008819;28;19917;-77
2022/06/16 04:02:08;;;;;;;;;;;12.30;99.90;;;;;;5044677;28;19921;-78
2022/06/16 04:04:34;;;;;;;;;;;12.40;99.90;;;;;;5010117;28;20295;-79
2022/06/16 04:07:05;;;;;;;;;;;12.40;99.90;;;;;;4995848;28;20342;-80
2022/06/16 04:09:31;;;;;;;;;;;12.40;99.90;;;;;;5010916;28;19918;-78
2022/06/16 04:11:57;;;;;;;;;;;12.50;99.90;;;;;;5011275;28;19917;-79
2022/06/16 04:14:22;;;;;;;;;;;12.50;99.90;;;;;;4993504;28;19925;-79
2022/06/16 04:16:52;;;;;;;;;;;12.50;99.90;;;;;;5011649;28;19921;-79
2022/06/16 04:19:20;;;;;;;;;;;12.50;99.90;;;;;;5043418;28;20055;-78
2022/06/16 04:21:47;;;;;;;;;;;12.50;99.90;;;;;;5016882;28;19967;-79
2022/06/16 04:24:13;;;;;;;;;;;12.50;99.90;;;;;;5050777;28;19917;-77
2022/06/16 04:26:39;;;;;;;;;;;12.50;99.90;;;;;;5018312;28;20015;-78
2022/06/16 04:29:05;;;;;;;;;;;12.60;99.90;;;;;;4984912;28;19984;-78
2022/06/16 04:31:31;;;;;;;;;;;12.60;99.90;;;;;;5050391;28;19924;-78
2022/06/16 04:33:57;;;;;;;;;;;12.70;99.90;;;;;;5016923;28;20319;-82
2022/06/16 04:36:23;;;;;;;;;;;13.30;99.90;;;;;;5017501;28;19917;-80
2022/06/16 04:38:49;;;;;;;;;;;12.80;99.90;;;;;;4984176;28;20008;-80
2022/06/16 04:41:15;;;;;;;;;;;12.90;99.90;;;;;;5041497;28;20311;-79
2022/06/16 04:43:42;;;;;;;;;;;13.00;99.90;;;;;;5000536;28;20322;-80
2022/06/16 04:46:08;;;;;;;;;;;13.20;99.90;;;;;;5001178;28;19921;-80
2022/06/16 04:48:34;;;;;;;;;;;13.30;99.90;;;;;;4999996;28;19928;-78
2022/06/16 04:51:00;;;;;;;;;;;13.40;99.90;;;;;;5017263;28;20390;-79
2022/06/16 04:53:26;;;;;;;;;;;13.50;99.90;;;;;;5000290;28;19921;-79
2022/06/16 04:55:56;;;;;;;;;;;13.70;99.90;;;;;;5029410;28;19967;-78
2022/06/16 04:58:22;;;;;;;;;;;13.90;99.90;;;;;;5063383;28;19917;-80
2022/06/16 05:00:54;;;;;;;;;;;14.10;99.90;;;;;;5018243;28;20357;-79
2022/06/16 05:03:20;;;;;;;;;;;14.30;99.90;;;;;;5021664;28;19992;-77
2022/06/16 05:05:46;;;;;;;;;;;14.40;99.90;;;;;;5009308;28;20260;-79
2022/06/16 05:08:13;;;;;;;;;;;14.60;99.90;;;;;;5035287;28;19917;-78
2022/06/16 05:10:38;;;;;;;;;;;14.90;99.90;;;;;;5028054;28;19933;-80
2022/06/16 05:13:05;;;;;;;;;;;15.00;99.90;;;;;;5020959;28;19921;-80
2022/06/16 05:15:32;;;;;;;;;;;15.10;99.90;;;;;;5036559;28;19924;-78
2022/06/16 05:17:58;;;;;;;;;;;15.30;99.90;;;;;;5036229;28;19922;-80
2022/06/16 05:20:23;;;;;;;;;;;15.40;99.90;;;;;;5026264;28;20012;-80
2022/06/16 05:22:49;;;;;;;;;;;15.50;99.90;;;;;;5036736;28;19921;-77
2022/06/16 05:25:14;;;;;;;;;;;15.60;99.90;;;;;;5030504;28;19924;-78
2022/06/16 05:27:46;;;;;;;;;;;15.70;99.90;;;;;;5030449;28;20247;-79
2022/06/16 05:30:12;;;;;;;;;;;15.80;99.90;;;;;;5046588;28;19918;-78
2022/06/16 05:32:39;;;;;;;;;;;15.80;99.90;;;;;;4998325;28;19929;-79
2022/06/16 05:35:04;;;;;;;;;;;15.80;99.90;;;;;;5013195;28;20375;-79
2022/06/16 05:37:30;;;;;;;;;;;15.80;99.90;;;;;;5014794;28;19917;-79
2022/06/16 05:39:56;;;;;;;;;;;15.80;99.90;;;;;;5031974;28;19921;-78
2022/06/16 05:42:22;;;;;;;;;;;15.70;99.90;;;;;;5015846;28;20387;-80
2022/06/16 05:44:53;;;;;;;;;;;15.60;99.90;;;;;;5003230;28;19968;-78
2022/06/16 05:47:19;;;;;;;;;;;15.60;99.90;;;;;;5027805;28;20330;-79
2022/06/16 05:49:47;;;;;;;;;;;15.60;99.90;;;;;;5015518;28;19932;-78
2022/06/16 05:52:18;;;;;;;;;;;15.60;99.90;;;;;;5024593;28;19921;-78
2022/06/16 05:54:44;;;;;;;;;;;15.60;99.90;;;;;;5051880;28;19921;-81
2022/06/16 05:57:10;;;;;;;;;;;15.70;99.90;;;;;;5056156;28;19917;-80
2022/06/16 05:59:36;;;;;;;;;;;15.70;99.90;;;;;;5013394;28;20260;-79
2022/06/16 06:02:03;;;;;;;;;;;15.80;99.90;;;;;;5022626;28;19917;-79
2022/06/16 06:04:30;;;;;;;;;;;15.80;99.90;;;;;;5051734;28;19931;-79
2022/06/16 06:06:56;;;;;;;;;;;15.80;99.90;;;;;;5033470;28;19921;-78
2022/06/16 06:17:38;;;;;;;;;;;15.90;99.90;;;;;;5025119;28;19917;-78
2022/06/16 06:20:07;;;;;;;;;;;16.00;99.90;;;;;;5053955;28;20363;-78
2022/06/16 06:22:33;;;;;;;;;;;16.00;99.90;;;;;;5067301;28;19917;-79
2022/06/16 06:25:00;;;;;;;;;;;16.00;99.90;;;;;;5024172;28;19927;-78
2022/06/16 06:27:25;;;;;;;;;;;16.00;99.90;;;;;;5058741;28;19927;-78
2022/06/16 06:29:51;;;;;;;;;;;16.10;99.90;;;;;;5015892;28;19917;-78
2022/06/16 06:32:18;;;;;;;;;;;16.20;99.90;;;;;;5013208;28;19928;-78
2022/06/16 06:34:43;;;;;;;;;;;16.20;99.90;;;;;;5012111;28;19924;-78
2022/06/16 06:37:10;;;;;;;;;;;16.30;99.90;;;;;;5027477;28;20267;-78
2022/06/16 06:39:36;;;;;;;;;;;16.40;99.90;;;;;;5024015;28;19928;-79
2022/06/16 06:42:03;;;;;;;;;;;16.50;99.90;;;;;;5031510;28;19917;-79
2022/06/16 06:44:29;;;;;;;;;;;16.70;99.90;;;;;;5023568;28;19921;-78
2022/06/16 06:46:54;;;;;;;;;;;16.80;99.90;;;;;;5032641;28;20329;-78
2022/06/16 06:49:20;;;;;;;;;;;16.90;99.90;;;;;;5012309;28;19918;-80
2022/06/16 06:51:46;;;;;;;;;;;17.00;99.90;;;;;;5020133;28;19924;-78
2022/06/16 06:54:12;;;;;;;;;;;17.10;99.90;;;;;;5035744;28;19941;-78
2022/06/16 06:56:38;;;;;;;;;;;17.20;99.90;;;;;;5025390;28;19957;-78
2022/06/16 06:59:05;;;;;;;;;;;17.20;99.90;;;;;;5012224;28;19975;-78
2022/06/16 07:01:31;;;;;;;;;;;17.30;99.90;;;;;;5015606;28;19967;-78
2022/06/16 07:03:57;;;;;;;;;;;17.40;99.90;;;;;;5039338;28;19961;-79
2022/06/16 07:06:22;;;;;;;;;;;17.40;99.90;;;;;;5011296;28;20393;-78
2022/06/16 07:08:48;;;;;;;;;;;17.50;99.90;;;;;;5026564;28;19921;-77
2022/06/16 07:11:13;;;;;;;;;;;17.70;99.90;;;;;;4996100;28;19994;-78
2022/06/16 07:13:40;;;;;;;;;;;17.80;99.90;;;;;;5009006;28;20012;-78
2022/06/16 07:16:07;;;;;;;;;;;17.90;99.90;;;;;;5024935;28;19917;-78
2022/06/16 07:18:32;;;;;;;;;;;17.90;99.90;;;;;;5047350;28;20317;-78
2022/06/16 07:20:58;;;;;;;;;;;17.90;99.90;;;;;;5065176;28;19916;-78
2022/06/16 07:23:27;;;;;;;;;;;17.90;99.90;;;;;;5064884;28;20016;-78
2022/06/16 07:25:53;;;;;;;;;;;17.90;99.90;;;;;;5019798;28;19924;-79
2022/06/16 07:28:19;;;;;;;;;;;18.00;99.90;;;;;;5016751;28;20401;-77
2022/06/16 07:30:45;;;;;;;;;;;18.10;99.90;;;;;;5052633;28;19921;-79
2022/06/16 07:33:12;;;;;;;;;;;18.10;99.90;;;;;;5014583;28;19966;-78
2022/06/16 07:35:40;;;;;;;;;;;18.20;99.90;;;;;;5064236;28;19995;-78
2022/06/16 07:38:06;;;;;;;;;;;18.30;99.90;;;;;;5048386;28;20274;-79
2022/06/16 07:40:31;;;;;;;;;;;18.40;99.90;;;;;;5005009;28;19918;-80
2022/06/16 07:42:57;;;;;;;;;;;18.40;99.90;;;;;;5027024;28;19932;-78
2022/06/16 07:45:23;;;;;;;;;;;18.40;99.90;;;;;;5021764;28;19939;-78
2022/06/16 07:47:51;;;;;;;;;;;18.40;99.90;;;;;;5017259;28;19925;-80
2022/06/16 07:50:17;;;;;;;;;;;18.50;99.90;;;;;;5017515;28;19918;-79
2022/06/16 07:52:43;;;;;;;;;;;18.50;99.90;;;;;;4996190;28;20291;-79
2022/06/16 07:55:10;;;;;;;;;;;18.60;99.90;;;;;;5030365;28;19993;-80
2022/06/16 07:57:39;;;;;;;;;;;18.60;99.90;;;;;;5014426;28;19967;-79
2022/06/16 08:00:05;;;;;;;;;;;18.60;99.90;;;;;;5064360;28;19956;-79
2022/06/16 08:02:30;;;;;;;;;;;18.70;99.90;;;;;;5064076;28;19958;-80
2022/06/16 08:04:56;;;;;;;;;;;18.80;99.90;;;;;;5026578;28;19921;-79
2022/06/16 08:07:22;;;;;;;;;;;18.80;99.90;;;;;;5022362;28;20350;-78
2022/06/16 08:09:48;;;;;;;;;;;18.90;99.90;;;;;;5016518;28;19929;-78
2022/06/16 08:12:14;;;;;;;;;;;18.80;99.90;;;;;;5064371;28;19928;-78
2022/06/16 08:14:41;;;;;;;;;;;18.80;99.90;;;;;;5030434;28;19925;-78
2022/06/16 08:17:19;;;;;;;;;;;18.90;99.90;;;;;;5030726;28;19940;-78
2022/06/16 08:19:45;;;;;;;;;;;19.00;99.90;;;;;;5046479;28;20270;-79
2022/06/16 08:22:12;;;;;;;;;;;19.10;99.90;;;;;;5053745;28;19917;-78
2022/06/16 08:24:38;;;;;;;;;;;19.30;99.90;;;;;;5011866;28;19917;-78
2022/06/16 08:27:04;;;;;;;;;;;19.40;99.90;;;;;;5003464;28;19917;-79
2022/06/16 08:29:31;;;;;;;;;;;19.50;99.90;;;;;;5063920;28;20026;-80
2022/06/16 08:31:58;;;;;;;;;;;19.40;99.90;;;;;;5022082;28;19990;-79
2022/06/16 08:34:25;;;;;;;;;;;19.50;99.90;;;;;;5050583;28;19921;-79
2022/06/16 08:36:52;;;;;;;;;;;19.50;99.90;;;;;;5031071;28;19917;-78
2022/06/16 08:39:18;;;;;;;;;;;19.60;99.90;;;;;;5032487;28;19986;-78
2022/06/16 08:41:48;;;;;;;;;;;19.60;99.90;;;;;;5039898;28;20426;-79
2022/06/16 08:44:34;;;;;;;;;;;19.70;99.90;;;;;;5017618;28;19967;-78
2022/06/16 08:47:14;;;;;;;;;;;19.80;99.90;;;;;;5011511;28;19947;-78
2022/06/16 08:49:59;;;;;;;;;;;20.00;99.90;;;;;;5017945;28;19924;-77
2022/06/16 08:52:44;;;;;;;;;;;20.30;99.90;;;;;;5011022;28;19925;-80
2022/06/16 08:55:23;;;;;;;;;;;20.60;99.90;;;;;;5009089;28;19928;-78
2022/06/16 08:58:02;;;;;;;;;;;20.70;99.90;;;;;;5020195;28;20352;-79
2022/06/16 09:00:51;;;;;;;;;;;20.90;99.90;;;;;;5055680;28;19917;-78
2022/06/16 09:03:36;;;;;;;;;;;20.80;99.60;;;;;;5028295;28;20382;-79
2022/06/16 09:06:20;;;;;;;;;;;20.70;98.30;;;;;;5018059;28;20339;-78
2022/06/16 09:09:01;;;;;;;;;;;20.60;98.30;;;;;;4997749;28;19918;-78
2022/06/16 09:11:40;;;;;;;;;;;20.50;99.90;;;;;;5001039;28;19917;-78
2022/06/16 09:14:09;;;;;;;;;;;20.50;99.90;;;;;;5014092;28;19971;-79
2022/06/16 09:16:51;;;;;;;;;;;20.50;99.90;;;;;;5016272;28;20295;-78
2022/06/16 09:19:35;;;;;;;;;;;20.60;99.90;;;;;;5032730;28;19917;-79
2022/06/16 09:22:05;;;;;;;;;;;20.90;99.60;;;;;;5028893;28;19921;-79
2022/06/16 09:24:30;;;;;;;;;;;21.00;98.00;;;;;;5047312;28;19917;-79
2022/06/16 09:26:56;;;;;;;;;;;20.80;97.80;;;;;;5029939;28;20356;-78
2022/06/16 09:29:33;;;;;;;;;;;20.60;99.80;;;;;;5033748;28;19970;-77
2022/06/16 09:32:11;;;;;;;;;;;20.40;99.80;;;;;;5033257;28;20023;-78
2022/06/16 09:34:43;;;;;;;;;;;20.20;99.30;;;;;;5032333;28;20290;-78
2022/06/16 09:37:13;;;;;;;;;;;19.60;99.90;;;;;;5028618;28;20458;-77
2022/06/16 09:39:40;;;;;;;;;;;20.00;99.90;;;;;;5013638;28;19979;-79
2022/06/16 09:45:13;;;;;;;;;;;20.10;99.90;;;;;;5058302;28;20346;-79
2022/06/16 09:47:41;;;;;;;;;;;20.30;99.90;;;;;;5013590;28;20004;-77
2022/06/16 09:50:11;;;;;;;;;;;20.30;99.90;;;;;;5000076;28;20037;-78
2022/06/16 09:52:39;;;;;;;;;;;20.40;99.40;;;;;;5027711;28;19928;-78
2022/06/16 09:55:15;;;;;;;;;;;20.50;99.90;;;;;;5034079;28;19925;-78
2022/06/16 09:57:44;;;;;;;;;;;20.60;99.90;;;;;;5018945;28;19917;-77
2022/06/16 10:00:14;;;;;;;;;;;20.70;98.70;;;;;;5066274;28;20362;-78
2022/06/16 10:02:52;;;;;;;;;;;20.80;97.40;;;;;;5028557;28;19921;-78
2022/06/16 10:05:30;;;;;;;;;;;20.80;98.50;;;;;;5047464;28;19967;-79
2022/06/16 10:08:09;;;;;;;;;;;20.80;97.10;;;;;;5011305;28;19957;-78
2022/06/16 10:10:43;;;;;;;;;;;20.70;97.30;;;;;;5024442;28;19995;-77
2022/06/16 10:13:15;;;;;;;;;;;20.80;97.20;;;;;;5027051;28;19980;-77
2022/06/16 10:15:44;;;;;;;;;;;20.80;96.70;;;;;;5024701;28;19995;-78
2022/06/16 10:18:10;;;;;;;;;;;20.90;97.20;;;;;;5030809;28;20007;-77
2022/06/16 10:20:36;;;;;;;;;;;21.10;95.50;;;;;;5066092;28;19960;-77
2022/06/16 10:23:06;;;;;;;;;;;21.10;93.50;;;;;;5065707;28;19920;-77
2022/06/16 10:25:35;;;;;;;;;;;21.10;93.20;;;;;;5023208;28;19952;-78
2022/06/16 10:28:10;;;;;;;;;;;21.10;94.20;;;;;;5010520;28;19921;-78
2022/06/16 10:30:37;;;;;;;;;;;21.20;94.50;;;;;;5004398;28;19940;-78
2022/06/16 10:33:08;;;;;;;;;;;21.30;93.90;;;;;;5011641;28;19932;-78
2022/06/16 10:35:35;;;;;;;;;;;21.50;92.50;;;;;;5022006;28;20362;-79
2022/06/16 10:38:00;;;;;;;;;;;21.50;92.50;;;;;;5018019;28;19921;-78
2022/06/16 10:40:30;;;;;;;;;;;21.40;92.20;;;;;;5047302;28;19917;-79
2022/06/16 10:43:03;;;;;;;;;;;21.50;91.30;;;;;;5018858;28;19929;-78
2022/06/16 10:45:31;;;;;;;;;;;21.50;92.00;;;;;;5018260;28;20500;-78
2022/06/16 10:48:12;;;;;;;;;;;21.50;92.00;;;;;;5019528;28;20282;-78
2022/06/16 10:50:43;;;;;;;;;;;21.50;92.50;;;;;;5014210;28;20268;-79
2022/06/16 10:53:26;;;;;;;;;;;21.60;93.40;;;;;;5013631;28;20012;-78
2022/06/16 10:55:56;;;;;;;;;;;21.80;92.00;;;;;;5023608;28;19921;-79
2022/06/16 10:58:26;;;;;;;;;;;21.80;91.90;;;;;;5032128;28;19924;-79
2022/06/16 11:01:10;;;;;;;;;;;21.90;91.70;;;;;;5031755;28;19924;-80
2022/06/16 11:03:41;;;;;;;;;;;21.90;91.20;;;;;;5023777;28;19924;-79
2022/06/16 11:06:07;;;;;;;;;;;21.90;90.00;;;;;;5025795;28;20331;-78
2022/06/16 11:08:44;;;;;;;;;;;21.90;91.20;;;;;;5031784;28;20003;-77
2022/06/16 11:11:11;;;;;;;;;;;22.10;91.30;;;;;;5048568;28;19924;-78
2022/06/16 11:13:43;;;;;;;;;;;22.20;91.20;;;;;;5031468;28;19921;-77
2022/06/16 11:16:11;;;;;;;;;;;22.30;91.70;;;;;;5001703;28;19963;-78
2022/06/16 11:18:37;;;;;;;;;;;22.40;87.40;;;;;;5020404;28;19970;-78
2022/06/16 11:21:12;;;;;;;;;;;22.40;87.30;;;;;;5048726;28;20278;-78
2022/06/16 11:23:48;;;;;;;;;;;22.40;85.30;;;;;;5029881;28;19916;-78
2022/06/16 11:26:16;;;;;;;;;;;22.30;83.00;;;;;;5012429;28;20346;-79
2022/06/16 11:28:42;;;;;;;;;;;22.30;83.10;;;;;;5026544;28;19924;-79
2022/06/16 11:31:08;;;;;;;;;;;22.30;82.50;;;;;;4995348;28;19917;-79
2022/06/16 11:36:26;;;;;;;;;;;22.50;80.80;;;;;;5031457;28;19975;-77
2022/06/16 11:38:59;;;;;;;;;;;22.50;80.70;;;;;;5031335;28;19917;-78
2022/06/16 11:41:26;;;;;;;;;;;22.50;79.00;;;;;;5031561;28;19929;-78
2022/06/16 11:43:51;;;;;;;;;;;22.50;77.90;;;;;;5026758;28;19917;-78
2022/06/16 11:46:35;;;;;;;;;;;22.60;79.10;;;;;;5054606;28;19924;-77
2022/06/16 11:49:06;;;;;;;;;;;22.70;79.50;;;;;;5036761;28;19917;-77
2022/06/16 11:51:32;;;;;;;;;;;22.90;76.30;;;;;;5013088;28;19918;-78
2022/06/16 11:54:12;;;;;;;;;;;23.00;77.30;;;;;;4994530;28;19928;-78
2022/06/16 11:56:47;;;;;;;;;;;23.20;76.70;;;;;;5030837;28;19928;-77
2022/06/16 11:59:22;;;;;;;;;;;23.30;78.40;;;;;;5019531;28;19980;-78
2022/06/16 12:01:51;;;;;;;;;;;23.40;75.80;;;;;;5018361;28;20424;-78
2022/06/16 12:04:28;;;;;;;;;;;23.30;75.60;;;;;;5050372;28;19960;-79
2022/06/16 12:07:03;;;;;;;;;;;23.30;77.50;;;;;;5012605;28;20004;-79
2022/06/16 12:09:41;;;;;;;;;;;23.40;76.80;;;;;;5011661;28;19925;-78
2022/06/16 12:12:39;;;;;;;;;;;23.50;75.80;;;;;;5047104;28;19940;-79
2022/06/16 12:15:05;;;;;;;;;;;23.60;75.70;;;;;;4976770;28;20393;-78
2022/06/16 12:17:30;;;;;;;;;;;23.80;75.00;;;;;;5028587;28;19925;-78
2022/06/16 12:20:22;;;;;;;;;;;23.80;73.50;;;;;;5009826;28;19929;-77
2022/06/16 12:22:59;;;;;;;;;;;23.70;73.10;;;;;;5040693;28;19917;-79
2022/06/16 12:25:37;;;;;;;;;;;23.80;76.30;;;;;;5006155;28;20294;-78
2022/06/16 12:28:13;;;;;;;;;;;24.30;75.60;;;;;;5030455;28;19917;-77
2022/06/16 12:30:40;;;;;;;;;;;24.20;73.30;;;;;;5030786;28;20354;-79
2022/06/16 12:33:06;;;;;;;;;;;24.10;72.70;;;;;;5030531;28;20022;-80
2022/06/16 12:35:35;;;;;;;;;;;24.00;72.00;;;;;;5064201;28;20361;-78
2022/06/16 12:38:20;;;;;;;;;;;24.00;72.20;;;;;;5017518;28;20390;-78
2022/06/16 12:40:49;;;;;;;;;;;24.00;72.90;;;;;;5028752;28;19921;-78
2022/06/16 12:43:18;;;;;;;;;;;24.10;72.50;;;;;;5021632;28;19972;-79
2022/06/16 12:45:46;;;;;;;;;;;24.10;73.20;;;;;;5057018;28;20274;-77
2022/06/16 12:48:19;;;;;;;;;;;24.20;70.50;;;;;;5026881;28;19917;-78
2022/06/16 12:50:46;;;;;;;;;;;24.30;74.20;;;;;;5045550;28;19922;-77
2022/06/16 12:53:35;;;;;;;;;;;24.60;72.60;;;;;;4998866;28;19968;-78
2022/06/16 12:56:09;;;;;;;;;;;24.80;75.60;;;;;;5038818;28;19921;-79
2022/06/16 12:59:04;;;;;;;;;;;25.00;75.80;;;;;;5023939;28;19917;-79
2022/06/16 13:01:29;;;;;;;;;;;25.10;72.30;;;;;;4998416;28;19971;-76
2022/06/16 13:04:12;;;;;;;;;;;25.10;72.90;;;;;;5069210;28;20293;-77
2022/06/16 13:06:38;;;;;;;;;;;25.10;70.30;;;;;;5014390;28;19965;-77
2022/06/16 13:09:06;;;;;;;;;;;25.30;69.20;;;;;;5027181;28;19956;-78
2022/06/16 13:11:38;;;;;;;;;;;25.50;73.70;;;;;;5034290;28;20378;-79
2022/06/16 13:14:10;;;;;;;;;;;25.80;78.70;;;;;;5067029;28;19921;-77
2022/06/16 13:16:39;;;;;;;;;;;25.80;70.90;;;;;;5028490;28;19917;-77
2022/06/16 13:19:15;;;;;;;;;;;25.60;69.10;;;;;;5027903;28;19917;-77
2022/06/16 13:21:47;;;;;;;;;;;25.50;69.10;;;;;;5034041;28;19923;-79
2022/06/16 13:24:23;;;;;;;;;;;25.50;67.60;;;;;;5019539;28;19925;-77
2022/06/16 13:27:06;;;;;;;;;;;25.60;65.80;;;;;;5014658;28;19964;-78
2022/06/16 13:29:52;;;;;;;;;;;25.90;69.30;;;;;;5024418;28;19917;-78
2022/06/16 13:32:30;;;;;;;;;;;26.00;69.60;;;;;;5021506;28;20239;-77
2022/06/16 13:34:57;;;;;;;;;;;26.10;70.30;;;;;;5027097;28;19972;-78
2022/06/16 13:37:32;;;;;;;;;;;26.20;67.80;;;;;;5024632;28;19983;-77
2022/06/16 13:40:07;;;;;;;;;;;26.10;65.30;;;;;;5048077;28;19964;-78
2022/06/16 13:42:56;;;;;;;;;;;26.10;66.60;;;;;;5014353;28;20000;-79
2022/06/16 13:45:22;;;;;;;;;;;26.40;68.60;;;;;;5043532;28;20316;-77
2022/06/16 13:48:06;;;;;;;;;;;26.60;65.10;;;;;;5025631;28;19917;-78
2022/06/16 13:50:47;;;;;;;;;;;26.80;64.50;;;;;;5050282;28;20384;-77
2022/06/16 13:53:19;;;;;;;;;;;26.90;68.50;;;;;;5015184;28;19944;-78
2022/06/16 13:56:05;;;;;;;;;;;27.00;65.50;;;;;;5019744;28;19925;-77
2022/06/16 13:58:31;;;;;;;;;;;26.90;64.10;;;;;;5052271;28;19916;-78
2022/06/16 14:01:17;;;;;;;;;;;26.80;62.80;;;;;;5019260;28;19921;-78
2022/06/16 14:04:01;;;;;;;;;;;26.90;62.30;;;;;;5012484;28;19917;-78
2022/06/16 14:06:27;;;;;;;;;;;26.90;61.90;;;;;;5010242;28;19917;-78
2022/06/16 14:08:56;;;;;;;;;;;26.90;60.40;;;;;;5013695;28;19928;-78
2022/06/16 14:11:27;;;;;;;;;;;26.70;61.20;;;;;;5049532;28;19923;-77
2022/06/16 14:14:13;;;;;;;;;;;26.60;60.10;;;;;;5032804;28;19921;-78
2022/06/16 14:16:47;;;;;;;;;;;26.50;59.30;;;;;;5034438;28;19999;-79
2022/06/16 14:19:20;;;;;;;;;;;26.60;59.90;;;;;;5048363;28;20282;-75
2022/06/16 14:21:52;;;;;;;;;;;26.80;61.10;;;;;;5048603;28;20010;-79
2022/06/16 14:24:29;;;;;;;;;;;27.10;60.60;;;;;;5018785;28;19921;-79
2022/06/16 14:26:55;;;;;;;;;;;27.20;58.30;;;;;;5021655;28;19917;-79
2022/06/16 14:29:23;;;;;;;;;;;27.20;59.50;;;;;;5015692;28;20369;-79
2022/06/16 14:32:01;;;;;;;;;;;27.30;60.40;;;;;;5024784;28;19935;-77
2022/06/16 14:34:35;;;;;;;;;;;27.60;58.30;;;;;;4997078;28;19928;-78
2022/06/16 14:37:03;;;;;;;;;;;27.70;58.50;;;;;;5032182;28;19921;-77
2022/06/16 14:39:38;;;;;;;;;;;27.70;57.20;;;;;;5017415;28;19921;-79
2022/06/16 14:42:07;;;;;;;;;;;27.70;57.80;;;;;;5021508;28;19921;-79
2022/06/16 14:44:39;;;;;;;;;;;27.90;57.30;;;;;;5058178;28;19987;-79
2022/06/16 14:47:16;;;;;;;;;;;27.90;56.30;;;;;;5032176;28;20371;-78
2022/06/16 14:49:50;;;;;;;;;;;27.60;55.60;;;;;;5020799;28;19936;-77
2022/06/16 14:52:18;;;;;;;;;;;27.50;57.00;;;;;;5013305;28;19984;-77
2022/06/16 14:54:50;;;;;;;;;;;27.60;56.50;;;;;;5028552;28;20043;-77
2022/06/16 14:57:19;;;;;;;;;;;27.60;55.80;;;;;;5045465;28;20022;-78